sensor_id;sensor_type;location;lat;lon;timestamp;P1;durP1;ratioP1;P2;durP2;ratioP2
49392;SDS011;35268;42.642;23.308;2023-03-03T00:02:01;5.68;;;3.00;;
49392;SDS011;35268;42.642;23.308;2023-03-03T00:04:26;7.38;;;3.50;;
49392;SDS011;35268;42.642;23.308;2023-03-03T00:06:51;5.18;;;2.95;;
49392;SDS011;35268;42.642;23.308;2023-03-03T00:09:17;6.72;;;2.90;;
49392;SDS011;35268;42.642;23.308;2023-03-03T00:11:42;4.78;;;2.83;;
49392;SDS011;35268;42.642;23.308;2023-03-03T00:14:22;5.07;;;3.20;;
49392;SDS011;35268;42.642;23.308;2023-03-03T00:16:51;5.93;;;3.05;;
49392;SDS011;35268;42.642;23.308;2023-03-03T00:19:17;5.85;;;3.10;;
49392;SDS011;35268;42.642;23.308;2023-03-03T00:21:44;6.75;;;2.78;;
49392;SDS011;35268;42.642;23.308;2023-03-03T00:26:45;6.88;;;3.70;;
49392;SDS011;35268;42.642;23.308;2023-03-03T00:29:23;7.35;;;3.40;;
49392;SDS011;35268;42.642;23.308;2023-03-03T00:34:42;4.70;;;3.00;;
49392;SDS011;35268;42.642;23.308;2023-03-03T00:37:41;5.53;;;2.90;;
49392;SDS011;35268;42.642;23.308;2023-03-03T00:40:14;6.75;;;4.10;;
49392;SDS011;35268;42.642;23.308;2023-03-03T00:42:41;6.35;;;3.42;;
49392;SDS011;35268;42.642;23.308;2023-03-03T00:45:33;4.75;;;3.05;;
49392;SDS011;35268;42.642;23.308;2023-03-03T00:47:56;6.55;;;3.83;;
49392;SDS011;35268;42.642;23.308;2023-03-03T00:53:00;6.20;;;3.60;;
49392;SDS011;35268;42.642;23.308;2023-03-03T00:55:43;6.95;;;3.97;;
49392;SDS011;35268;42.642;23.308;2023-03-03T00:58:09;7.10;;;3.72;;
49392;SDS011;35268;42.642;23.308;2023-03-03T01:00:35;6.88;;;4.07;;
49392;SDS011;35268;42.642;23.308;2023-03-03T01:03:03;6.25;;;4.13;;
49392;SDS011;35268;42.642;23.308;2023-03-03T01:05:30;10.95;;;3.70;;
49392;SDS011;35268;42.642;23.308;2023-03-03T01:07:57;7.05;;;3.55;;
49392;SDS011;35268;42.642;23.308;2023-03-03T01:10:22;7.38;;;3.60;;
49392;SDS011;35268;42.642;23.308;2023-03-03T01:12:48;5.10;;;3.22;;
49392;SDS011;35268;42.642;23.308;2023-03-03T01:15:14;7.15;;;3.45;;
49392;SDS011;35268;42.642;23.308;2023-03-03T01:17:40;6.32;;;4.00;;
49392;SDS011;35268;42.642;23.308;2023-03-03T01:20:07;6.63;;;3.75;;
49392;SDS011;35268;42.642;23.308;2023-03-03T01:22:34;6.85;;;3.88;;
49392;SDS011;35268;42.642;23.308;2023-03-03T01:25:00;7.45;;;3.78;;
49392;SDS011;35268;42.642;23.308;2023-03-03T01:27:27;7.28;;;3.95;;
49392;SDS011;35268;42.642;23.308;2023-03-03T01:29:54;5.97;;;3.33;;
49392;SDS011;35268;42.642;23.308;2023-03-03T01:32:20;7.55;;;3.80;;
49392;SDS011;35268;42.642;23.308;2023-03-03T01:34:46;7.50;;;3.80;;
49392;SDS011;35268;42.642;23.308;2023-03-03T01:37:12;7.68;;;3.80;;
49392;SDS011;35268;42.642;23.308;2023-03-03T01:39:37;9.57;;;3.83;;
49392;SDS011;35268;42.642;23.308;2023-03-03T01:42:03;5.80;;;3.58;;
49392;SDS011;35268;42.642;23.308;2023-03-03T01:44:29;7.78;;;3.25;;
49392;SDS011;35268;42.642;23.308;2023-03-03T01:46:55;6.18;;;3.40;;
49392;SDS011;35268;42.642;23.308;2023-03-03T01:49:52;7.22;;;4.05;;
49392;SDS011;35268;42.642;23.308;2023-03-03T01:52:29;5.45;;;3.50;;
49392;SDS011;35268;42.642;23.308;2023-03-03T01:55:00;11.18;;;4.45;;
49392;SDS011;35268;42.642;23.308;2023-03-03T01:57:30;5.82;;;3.65;;
49392;SDS011;35268;42.642;23.308;2023-03-03T01:59:59;5.57;;;3.28;;
49392;SDS011;35268;42.642;23.308;2023-03-03T02:02:26;6.10;;;3.72;;
49392;SDS011;35268;42.642;23.308;2023-03-03T02:04:53;6.60;;;3.47;;
49392;SDS011;35268;42.642;23.308;2023-03-03T02:07:19;6.53;;;3.40;;
49392;SDS011;35268;42.642;23.308;2023-03-03T02:12:35;5.28;;;3.35;;
49392;SDS011;35268;42.642;23.308;2023-03-03T02:15:38;5.82;;;3.50;;
49392;SDS011;35268;42.642;23.308;2023-03-03T02:18:04;5.32;;;3.15;;
49392;SDS011;35268;42.642;23.308;2023-03-03T02:23:07;5.32;;;3.30;;
49392;SDS011;35268;42.642;23.308;2023-03-03T02:28:22;5.05;;;3.33;;
49392;SDS011;35268;42.642;23.308;2023-03-03T02:30:53;8.00;;;4.30;;
49392;SDS011;35268;42.642;23.308;2023-03-03T02:33:20;6.70;;;3.67;;
49392;SDS011;35268;42.642;23.308;2023-03-03T02:35:45;6.85;;;4.22;;
49392;SDS011;35268;42.642;23.308;2023-03-03T02:40:46;7.80;;;4.13;;
49392;SDS011;35268;42.642;23.308;2023-03-03T02:43:22;6.60;;;3.20;;
49392;SDS011;35268;42.642;23.308;2023-03-03T02:45:50;8.57;;;4.30;;
49392;SDS011;35268;42.642;23.308;2023-03-03T02:48:16;6.78;;;3.88;;
49392;SDS011;35268;42.642;23.308;2023-03-03T02:50:41;8.38;;;4.30;;
49392;SDS011;35268;42.642;23.308;2023-03-03T02:53:07;6.60;;;3.97;;
49392;SDS011;35268;42.642;23.308;2023-03-03T02:55:32;7.63;;;4.30;;
49392;SDS011;35268;42.642;23.308;2023-03-03T02:57:57;5.95;;;3.42;;
49392;SDS011;35268;42.642;23.308;2023-03-03T03:00:23;6.80;;;3.60;;
49392;SDS011;35268;42.642;23.308;2023-03-03T03:02:48;7.18;;;4.20;;
49392;SDS011;35268;42.642;23.308;2023-03-03T03:05:14;6.57;;;4.03;;
49392;SDS011;35268;42.642;23.308;2023-03-03T03:07:39;7.25;;;3.88;;
49392;SDS011;35268;42.642;23.308;2023-03-03T03:10:05;8.00;;;4.22;;
49392;SDS011;35268;42.642;23.308;2023-03-03T03:12:30;7.78;;;4.10;;
49392;SDS011;35268;42.642;23.308;2023-03-03T03:14:56;7.60;;;4.05;;
49392;SDS011;35268;42.642;23.308;2023-03-03T03:17:22;6.32;;;4.03;;
49392;SDS011;35268;42.642;23.308;2023-03-03T03:19:47;8.00;;;4.43;;
49392;SDS011;35268;42.642;23.308;2023-03-03T03:22:13;7.57;;;4.55;;
49392;SDS011;35268;42.642;23.308;2023-03-03T03:24:38;10.15;;;4.22;;
49392;SDS011;35268;42.642;23.308;2023-03-03T03:27:04;8.25;;;4.40;;
49392;SDS011;35268;42.642;23.308;2023-03-03T03:29:29;9.68;;;5.03;;
49392;SDS011;35268;42.642;23.308;2023-03-03T03:31:54;8.10;;;4.43;;
49392;SDS011;35268;42.642;23.308;2023-03-03T03:34:20;7.03;;;4.47;;
49392;SDS011;35268;42.642;23.308;2023-03-03T03:36:45;8.98;;;4.65;;
49392;SDS011;35268;42.642;23.308;2023-03-03T03:39:11;7.65;;;4.28;;
49392;SDS011;35268;42.642;23.308;2023-03-03T03:41:37;9.40;;;5.50;;
49392;SDS011;35268;42.642;23.308;2023-03-03T03:44:02;8.40;;;4.82;;
49392;SDS011;35268;42.642;23.308;2023-03-03T03:46:28;7.72;;;4.68;;
49392;SDS011;35268;42.642;23.308;2023-03-03T03:48:53;7.70;;;4.47;;
49392;SDS011;35268;42.642;23.308;2023-03-03T03:51:18;8.75;;;4.90;;
49392;SDS011;35268;42.642;23.308;2023-03-03T03:53:44;9.57;;;4.95;;
49392;SDS011;35268;42.642;23.308;2023-03-03T03:56:09;8.50;;;5.43;;
49392;SDS011;35268;42.642;23.308;2023-03-03T03:58:35;12.88;;;5.30;;
49392;SDS011;35268;42.642;23.308;2023-03-03T04:01:01;8.93;;;5.40;;
49392;SDS011;35268;42.642;23.308;2023-03-03T04:03:28;7.82;;;5.25;;
49392;SDS011;35268;42.642;23.308;2023-03-03T04:05:53;7.80;;;4.80;;
49392;SDS011;35268;42.642;23.308;2023-03-03T04:08:19;10.35;;;5.43;;
49392;SDS011;35268;42.642;23.308;2023-03-03T04:10:44;10.43;;;5.40;;
49392;SDS011;35268;42.642;23.308;2023-03-03T04:13:10;11.23;;;5.82;;
49392;SDS011;35268;42.642;23.308;2023-03-03T04:15:35;11.88;;;5.60;;
49392;SDS011;35268;42.642;23.308;2023-03-03T04:18:01;9.73;;;5.60;;
49392;SDS011;35268;42.642;23.308;2023-03-03T04:20:28;9.88;;;5.35;;
49392;SDS011;35268;42.642;23.308;2023-03-03T04:22:53;13.52;;;5.65;;
49392;SDS011;35268;42.642;23.308;2023-03-03T04:25:19;8.02;;;5.22;;
49392;SDS011;35268;42.642;23.308;2023-03-03T04:27:44;11.52;;;6.13;;
49392;SDS011;35268;42.642;23.308;2023-03-03T04:30:10;9.48;;;5.65;;
49392;SDS011;35268;42.642;23.308;2023-03-03T04:32:36;12.38;;;6.00;;
49392;SDS011;35268;42.642;23.308;2023-03-03T04:35:02;12.57;;;6.10;;
49392;SDS011;35268;42.642;23.308;2023-03-03T04:37:28;11.88;;;5.90;;
49392;SDS011;35268;42.642;23.308;2023-03-03T04:39:53;11.13;;;6.25;;
49392;SDS011;35268;42.642;23.308;2023-03-03T04:42:18;9.52;;;6.15;;
49392;SDS011;35268;42.642;23.308;2023-03-03T04:44:44;10.10;;;5.55;;
49392;SDS011;35268;42.642;23.308;2023-03-03T04:47:09;11.48;;;5.82;;
49392;SDS011;35268;42.642;23.308;2023-03-03T04:49:35;13.57;;;6.25;;
49392;SDS011;35268;42.642;23.308;2023-03-03T04:52:01;10.80;;;6.68;;
49392;SDS011;35268;42.642;23.308;2023-03-03T04:54:26;9.70;;;5.65;;
49392;SDS011;35268;42.642;23.308;2023-03-03T04:56:51;12.93;;;6.68;;
49392;SDS011;35268;42.642;23.308;2023-03-03T04:59:17;11.55;;;6.15;;
49392;SDS011;35268;42.642;23.308;2023-03-03T05:01:42;9.10;;;5.88;;
49392;SDS011;35268;42.642;23.308;2023-03-03T05:04:10;9.68;;;5.68;;
49392;SDS011;35268;42.642;23.308;2023-03-03T05:06:35;10.80;;;6.07;;
49392;SDS011;35268;42.642;23.308;2023-03-03T05:09:01;11.95;;;5.80;;
49392;SDS011;35268;42.642;23.308;2023-03-03T05:11:26;10.85;;;5.85;;
49392;SDS011;35268;42.642;23.308;2023-03-03T05:13:52;16.52;;;5.65;;
49392;SDS011;35268;42.642;23.308;2023-03-03T05:16:17;9.57;;;5.55;;
49392;SDS011;35268;42.642;23.308;2023-03-03T05:18:43;9.45;;;5.43;;
49392;SDS011;35268;42.642;23.308;2023-03-03T05:21:09;10.40;;;5.00;;
49392;SDS011;35268;42.642;23.308;2023-03-03T05:23:35;10.60;;;5.30;;
49392;SDS011;35268;42.642;23.308;2023-03-03T05:26:01;19.80;;;6.88;;
49392;SDS011;35268;42.642;23.308;2023-03-03T05:28:26;17.83;;;7.60;;
49392;SDS011;35268;42.642;23.308;2023-03-03T05:30:51;24.92;;;9.13;;
49392;SDS011;35268;42.642;23.308;2023-03-03T05:33:17;31.92;;;10.00;;
49392;SDS011;35268;42.642;23.308;2023-03-03T05:35:43;15.00;;;7.18;;
49392;SDS011;35268;42.642;23.308;2023-03-03T05:38:09;16.70;;;8.25;;
49392;SDS011;35268;42.642;23.308;2023-03-03T05:40:35;28.60;;;10.30;;
49392;SDS011;35268;42.642;23.308;2023-03-03T05:43:01;23.42;;;9.32;;
49392;SDS011;35268;42.642;23.308;2023-03-03T05:45:26;15.98;;;6.85;;
49392;SDS011;35268;42.642;23.308;2023-03-03T05:47:52;15.73;;;6.53;;
49392;SDS011;35268;42.642;23.308;2023-03-03T05:50:18;10.10;;;4.75;;
49392;SDS011;35268;42.642;23.308;2023-03-03T05:52:52;12.05;;;5.47;;
49392;SDS011;35268;42.642;23.308;2023-03-03T05:55:18;9.73;;;5.35;;
49392;SDS011;35268;42.642;23.308;2023-03-03T05:57:44;14.40;;;5.03;;
49392;SDS011;35268;42.642;23.308;2023-03-03T06:00:10;11.40;;;5.28;;
49392;SDS011;35268;42.642;23.308;2023-03-03T06:02:37;14.70;;;6.32;;
49392;SDS011;35268;42.642;23.308;2023-03-03T06:05:02;12.63;;;6.70;;
49392;SDS011;35268;42.642;23.308;2023-03-03T06:07:28;10.45;;;6.47;;
49392;SDS011;35268;42.642;23.308;2023-03-03T06:09:53;16.25;;;7.78;;
49392;SDS011;35268;42.642;23.308;2023-03-03T06:12:18;15.32;;;7.45;;
49392;SDS011;35268;42.642;23.308;2023-03-03T06:14:44;13.07;;;6.95;;
49392;SDS011;35268;42.642;23.308;2023-03-03T06:17:09;13.90;;;7.85;;
49392;SDS011;35268;42.642;23.308;2023-03-03T06:19:35;16.25;;;7.53;;
49392;SDS011;35268;42.642;23.308;2023-03-03T06:22:00;14.13;;;8.02;;
49392;SDS011;35268;42.642;23.308;2023-03-03T06:24:26;18.20;;;9.25;;
49392;SDS011;35268;42.642;23.308;2023-03-03T06:26:54;17.83;;;9.82;;
49392;SDS011;35268;42.642;23.308;2023-03-03T06:29:20;22.92;;;12.18;;
49392;SDS011;35268;42.642;23.308;2023-03-03T06:31:46;24.98;;;11.45;;
49392;SDS011;35268;42.642;23.308;2023-03-03T06:34:11;19.55;;;10.23;;
49392;SDS011;35268;42.642;23.308;2023-03-03T06:36:37;17.63;;;9.38;;
49392;SDS011;35268;42.642;23.308;2023-03-03T06:39:02;18.35;;;8.60;;
49392;SDS011;35268;42.642;23.308;2023-03-03T06:41:28;15.40;;;8.55;;
49392;SDS011;35268;42.642;23.308;2023-03-03T06:43:53;18.15;;;8.88;;
49392;SDS011;35268;42.642;23.308;2023-03-03T06:46:19;19.00;;;8.25;;
49392;SDS011;35268;42.642;23.308;2023-03-03T06:48:44;15.38;;;8.40;;
49392;SDS011;35268;42.642;23.308;2023-03-03T06:51:32;15.52;;;7.60;;
49392;SDS011;35268;42.642;23.308;2023-03-03T06:54:00;15.45;;;8.50;;
49392;SDS011;35268;42.642;23.308;2023-03-03T06:56:31;19.42;;;8.35;;
49392;SDS011;35268;42.642;23.308;2023-03-03T06:59:00;15.50;;;7.47;;
49392;SDS011;35268;42.642;23.308;2023-03-03T07:01:31;17.38;;;8.57;;
49392;SDS011;35268;42.642;23.308;2023-03-03T07:03:59;14.65;;;7.63;;
49392;SDS011;35268;42.642;23.308;2023-03-03T07:06:25;16.10;;;7.20;;
49392;SDS011;35268;42.642;23.308;2023-03-03T07:08:52;16.27;;;6.55;;
49392;SDS011;35268;42.642;23.308;2023-03-03T07:11:19;18.85;;;6.63;;
49392;SDS011;35268;42.642;23.308;2023-03-03T07:13:47;13.63;;;6.30;;
49392;SDS011;35268;42.642;23.308;2023-03-03T07:16:18;15.32;;;7.65;;
49392;SDS011;35268;42.642;23.308;2023-03-03T07:19:11;14.50;;;7.72;;
49392;SDS011;35268;42.642;23.308;2023-03-03T07:21:44;13.85;;;7.28;;
49392;SDS011;35268;42.642;23.308;2023-03-03T07:26:54;12.15;;;7.20;;
49392;SDS011;35268;42.642;23.308;2023-03-03T07:29:24;12.25;;;7.32;;
49392;SDS011;35268;42.642;23.308;2023-03-03T07:31:52;14.02;;;8.00;;
49392;SDS011;35268;42.642;23.308;2023-03-03T07:36:58;13.57;;;7.95;;
49392;SDS011;35268;42.642;23.308;2023-03-03T07:39:35;11.68;;;7.03;;
49392;SDS011;35268;42.642;23.308;2023-03-03T07:45:47;12.20;;;6.78;;
49392;SDS011;35268;42.642;23.308;2023-03-03T07:48:16;14.23;;;7.40;;
49392;SDS011;35268;42.642;23.308;2023-03-03T07:53:21;16.70;;;7.47;;
49392;SDS011;35268;42.642;23.308;2023-03-03T07:55:51;17.88;;;9.90;;
49392;SDS011;35268;42.642;23.308;2023-03-03T07:58:20;15.75;;;8.80;;
49392;SDS011;35268;42.642;23.308;2023-03-03T08:03:49;21.25;;;8.00;;
49392;SDS011;35268;42.642;23.308;2023-03-03T08:11:33;12.85;;;6.63;;
49392;SDS011;35268;42.642;23.308;2023-03-03T08:13:59;18.00;;;7.32;;
49392;SDS011;35268;42.642;23.308;2023-03-03T08:16:31;14.18;;;7.22;;
49392;SDS011;35268;42.642;23.308;2023-03-03T08:19:01;12.60;;;7.55;;
49392;SDS011;35268;42.642;23.308;2023-03-03T08:21:28;14.40;;;7.03;;
49392;SDS011;35268;42.642;23.308;2023-03-03T08:23:55;13.10;;;7.00;;
49392;SDS011;35268;42.642;23.308;2023-03-03T08:26:22;13.32;;;6.57;;
49392;SDS011;35268;42.642;23.308;2023-03-03T08:28:48;16.63;;;6.32;;
49392;SDS011;35268;42.642;23.308;2023-03-03T08:31:14;10.20;;;5.80;;
49392;SDS011;35268;42.642;23.308;2023-03-03T08:33:41;12.30;;;6.68;;
49392;SDS011;35268;42.642;23.308;2023-03-03T08:36:07;12.38;;;6.43;;
49392;SDS011;35268;42.642;23.308;2023-03-03T08:38:33;37.05;;;17.73;;
49392;SDS011;35268;42.642;23.308;2023-03-03T08:40:59;103.78;;;46.80;;
49392;SDS011;35268;42.642;23.308;2023-03-03T08:43:25;24.55;;;11.45;;
49392;SDS011;35268;42.642;23.308;2023-03-03T08:45:52;13.93;;;6.60;;
49392;SDS011;35268;42.642;23.308;2023-03-03T08:48:22;11.60;;;6.20;;
49392;SDS011;35268;42.642;23.308;2023-03-03T08:50:47;13.98;;;6.68;;
49392;SDS011;35268;42.642;23.308;2023-03-03T08:53:13;10.75;;;5.70;;
49392;SDS011;35268;42.642;23.308;2023-03-03T08:55:39;13.05;;;7.40;;
49392;SDS011;35268;42.642;23.308;2023-03-03T08:58:05;11.57;;;6.65;;
49392;SDS011;35268;42.642;23.308;2023-03-03T09:00:31;13.40;;;6.95;;
49392;SDS011;35268;42.642;23.308;2023-03-03T09:02:56;10.50;;;6.28;;
49392;SDS011;35268;42.642;23.308;2023-03-03T09:05:23;10.27;;;5.72;;
49392;SDS011;35268;42.642;23.308;2023-03-03T09:07:50;13.85;;;6.25;;
49392;SDS011;35268;42.642;23.308;2023-03-03T09:10:17;16.02;;;5.30;;
49392;SDS011;35268;42.642;23.308;2023-03-03T09:12:46;9.48;;;5.07;;
49392;SDS011;35268;42.642;23.308;2023-03-03T09:17:44;8.35;;;5.10;;
49392;SDS011;35268;42.642;23.308;2023-03-03T09:20:24;15.13;;;6.80;;
49392;SDS011;35268;42.642;23.308;2023-03-03T09:22:55;17.35;;;8.10;;
49392;SDS011;35268;42.642;23.308;2023-03-03T09:25:26;14.05;;;8.15;;
49392;SDS011;35268;42.642;23.308;2023-03-03T09:27:57;20.92;;;9.20;;
49392;SDS011;35268;42.642;23.308;2023-03-03T09:32:51;20.08;;;11.93;;
49392;SDS011;35268;42.642;23.308;2023-03-03T09:38:00;18.75;;;10.65;;
49392;SDS011;35268;42.642;23.308;2023-03-03T09:43:56;14.35;;;8.85;;
49392;SDS011;35268;42.642;23.308;2023-03-03T09:46:26;26.00;;;12.73;;
49392;SDS011;35268;42.642;23.308;2023-03-03T09:52:10;22.27;;;9.27;;
49392;SDS011;35268;42.642;23.308;2023-03-03T10:08:29;18.98;;;10.25;;
49392;SDS011;35268;42.642;23.308;2023-03-03T10:24:53;24.70;;;12.75;;
49392;SDS011;35268;42.642;23.308;2023-03-03T10:41:08;15.38;;;8.13;;
49392;SDS011;35268;42.642;23.308;2023-03-03T10:46:33;19.23;;;8.93;;
49392;SDS011;35268;42.642;23.308;2023-03-03T10:54:25;13.15;;;8.20;;
49392;SDS011;35268;42.642;23.308;2023-03-03T10:57:25;16.98;;;9.60;;
49392;SDS011;35268;42.642;23.308;2023-03-03T11:08:23;24.38;;;13.45;;
49392;SDS011;35268;42.642;23.308;2023-03-03T11:25:15;19.23;;;11.05;;
49392;SDS011;35268;42.642;23.308;2023-03-03T11:33:22;27.95;;;12.43;;
49392;SDS011;35268;42.642;23.308;2023-03-03T11:36:08;24.85;;;12.57;;
49392;SDS011;35268;42.642;23.308;2023-03-03T11:44:26;67.18;;;29.45;;
49392;SDS011;35268;42.642;23.308;2023-03-03T11:47:01;39.75;;;19.42;;
49392;SDS011;35268;42.642;23.308;2023-03-03T11:49:51;37.20;;;17.20;;
49392;SDS011;35268;42.642;23.308;2023-03-03T11:55:23;77.97;;;32.58;;
49392;SDS011;35268;42.642;23.308;2023-03-03T12:03:56;91.68;;;34.85;;
49392;SDS011;35268;42.642;23.308;2023-03-03T12:20:17;42.45;;;20.80;;
49392;SDS011;35268;42.642;23.308;2023-03-03T12:25:45;26.95;;;14.27;;
49392;SDS011;35268;42.642;23.308;2023-03-03T12:34:16;28.95;;;16.13;;
49392;SDS011;35268;42.642;23.308;2023-03-03T12:36:57;27.17;;;15.95;;
49392;SDS011;35268;42.642;23.308;2023-03-03T12:45:44;29.48;;;16.42;;
49392;SDS011;35268;42.642;23.308;2023-03-03T12:53:29;28.33;;;17.10;;
49392;SDS011;35268;42.642;23.308;2023-03-03T12:56:12;29.85;;;17.15;;
49392;SDS011;35268;42.642;23.308;2023-03-03T13:12:22;23.48;;;12.25;;
49392;SDS011;35268;42.642;23.308;2023-03-03T13:20:16;18.83;;;10.65;;
49392;SDS011;35268;42.642;23.308;2023-03-03T13:22:48;19.58;;;9.57;;
49392;SDS011;35268;42.642;23.308;2023-03-03T13:25:38;15.75;;;9.30;;
49392;SDS011;35268;42.642;23.308;2023-03-03T13:31:14;17.00;;;8.77;;
49392;SDS011;35268;42.642;23.308;2023-03-03T13:33:49;16.95;;;9.60;;
49392;SDS011;35268;42.642;23.308;2023-03-03T13:36:18;13.02;;;7.95;;
49392;SDS011;35268;42.642;23.308;2023-03-03T13:38:54;16.35;;;7.38;;
49392;SDS011;35268;42.642;23.308;2023-03-03T13:44:24;11.48;;;6.82;;
49392;SDS011;35268;42.642;23.308;2023-03-03T13:47:13;13.93;;;7.63;;
49392;SDS011;35268;42.642;23.308;2023-03-03T13:53:00;16.40;;;8.40;;
49392;SDS011;35268;42.642;23.308;2023-03-03T14:05:50;17.90;;;9.80;;
49392;SDS011;35268;42.642;23.308;2023-03-03T14:11:17;16.38;;;8.38;;
49392;SDS011;35268;42.642;23.308;2023-03-03T14:14:02;15.77;;;8.25;;
49392;SDS011;35268;42.642;23.308;2023-03-03T14:19:43;15.63;;;8.55;;
49392;SDS011;35268;42.642;23.308;2023-03-03T14:32:58;16.95;;;9.23;;
49392;SDS011;35268;42.642;23.308;2023-03-03T14:35:23;14.35;;;9.93;;
49392;SDS011;35268;42.642;23.308;2023-03-03T14:37:59;17.63;;;10.43;;
49392;SDS011;35268;42.642;23.308;2023-03-03T14:40:30;15.73;;;9.68;;
49392;SDS011;35268;42.642;23.308;2023-03-03T14:43:00;24.65;;;13.27;;
49392;SDS011;35268;42.642;23.308;2023-03-03T14:50:38;19.00;;;12.35;;
49392;SDS011;35268;42.642;23.308;2023-03-03T14:55:45;17.90;;;11.25;;
49392;SDS011;35268;42.642;23.308;2023-03-03T15:01:35;20.10;;;12.23;;
49392;SDS011;35268;42.642;23.308;2023-03-03T15:04:03;23.27;;;11.82;;
49392;SDS011;35268;42.642;23.308;2023-03-03T15:06:44;18.95;;;10.82;;
49392;SDS011;35268;42.642;23.308;2023-03-03T15:09:27;18.50;;;10.57;;
49392;SDS011;35268;42.642;23.308;2023-03-03T15:11:58;17.90;;;9.80;;
49392;SDS011;35268;42.642;23.308;2023-03-03T15:14:31;16.13;;;9.18;;
49392;SDS011;35268;42.642;23.308;2023-03-03T15:23:10;16.95;;;10.65;;
49392;SDS011;35268;42.642;23.308;2023-03-03T15:28:32;23.60;;;12.07;;
49392;SDS011;35268;42.642;23.308;2023-03-03T15:36:40;15.15;;;10.57;;
49392;SDS011;35268;42.642;23.308;2023-03-03T15:42:14;19.42;;;12.32;;
49392;SDS011;35268;42.642;23.308;2023-03-03T15:44:55;20.85;;;13.23;;
49392;SDS011;35268;42.642;23.308;2023-03-03T15:50:41;18.35;;;12.13;;
49392;SDS011;35268;42.642;23.308;2023-03-03T16:03:35;18.50;;;12.40;;
49392;SDS011;35268;42.642;23.308;2023-03-03T16:27:51;32.55;;;19.42;;
49392;SDS011;35268;42.642;23.308;2023-03-03T16:30:31;31.73;;;18.75;;
49392;SDS011;35268;42.642;23.308;2023-03-03T16:33:08;28.58;;;17.77;;
49392;SDS011;35268;42.642;23.308;2023-03-03T16:38:38;25.50;;;15.93;;
49392;SDS011;35268;42.642;23.308;2023-03-03T16:46:30;25.45;;;13.20;;
49392;SDS011;35268;42.642;23.308;2023-03-03T16:49:08;20.38;;;13.60;;
49392;SDS011;35268;42.642;23.308;2023-03-03T16:51:47;21.17;;;14.40;;
49392;SDS011;35268;42.642;23.308;2023-03-03T16:54:54;25.00;;;13.38;;
49392;SDS011;35268;42.642;23.308;2023-03-03T16:57:25;20.98;;;12.73;;
49392;SDS011;35268;42.642;23.308;2023-03-03T17:00:18;23.77;;;13.55;;
49392;SDS011;35268;42.642;23.308;2023-03-03T17:13:57;21.83;;;13.32;;
49392;SDS011;35268;42.642;23.308;2023-03-03T17:20:07;16.25;;;10.35;;
49392;SDS011;35268;42.642;23.308;2023-03-03T17:44:45;12.88;;;6.45;;
49392;SDS011;35268;42.642;23.308;2023-03-03T17:47:18;11.43;;;7.53;;
49392;SDS011;35268;42.642;23.308;2023-03-03T17:53:17;15.45;;;8.38;;
49392;SDS011;35268;42.642;23.308;2023-03-03T18:01:39;16.60;;;8.65;;
49392;SDS011;35268;42.642;23.308;2023-03-03T18:04:20;14.02;;;8.52;;
49392;SDS011;35268;42.642;23.308;2023-03-03T18:18:02;17.85;;;9.68;;
49392;SDS011;35268;42.642;23.308;2023-03-03T18:20:44;17.83;;;8.50;;
49392;SDS011;35268;42.642;23.308;2023-03-03T18:26:27;16.58;;;9.45;;
49392;SDS011;35268;42.642;23.308;2023-03-03T18:31:59;18.15;;;9.77;;
49392;SDS011;35268;42.642;23.308;2023-03-03T18:34:37;16.52;;;10.55;;
49392;SDS011;35268;42.642;23.308;2023-03-03T18:37:08;18.13;;;10.02;;
49392;SDS011;35268;42.642;23.308;2023-03-03T18:39:48;19.05;;;10.13;;
49392;SDS011;35268;42.642;23.308;2023-03-03T18:42:38;22.25;;;9.20;;
49392;SDS011;35268;42.642;23.308;2023-03-03T18:50:39;16.75;;;9.57;;
49392;SDS011;35268;42.642;23.308;2023-03-03T18:53:25;18.83;;;9.85;;
49392;SDS011;35268;42.642;23.308;2023-03-03T19:00:46;21.77;;;10.45;;
49392;SDS011;35268;42.642;23.308;2023-03-03T19:06:04;24.10;;;12.55;;
49392;SDS011;35268;42.642;23.308;2023-03-03T19:16:44;18.98;;;10.40;;
49392;SDS011;35268;42.642;23.308;2023-03-03T19:19:12;17.98;;;11.25;;
49392;SDS011;35268;42.642;23.308;2023-03-03T19:21:50;16.08;;;9.35;;
49392;SDS011;35268;42.642;23.308;2023-03-03T19:24:49;15.18;;;9.55;;
49392;SDS011;35268;42.642;23.308;2023-03-03T19:28:15;22.88;;;12.20;;
49392;SDS011;35268;42.642;23.308;2023-03-03T19:30:55;22.15;;;11.63;;
49392;SDS011;35268;42.642;23.308;2023-03-03T19:33:54;18.20;;;10.55;;
49392;SDS011;35268;42.642;23.308;2023-03-03T19:47:47;17.45;;;10.60;;
49392;SDS011;35268;42.642;23.308;2023-03-03T20:14:24;34.20;;;16.55;;
49392;SDS011;35268;42.642;23.308;2023-03-03T20:17:11;36.47;;;18.02;;
49392;SDS011;35268;42.642;23.308;2023-03-03T20:22:45;54.55;;;24.77;;
49392;SDS011;35268;42.642;23.308;2023-03-03T20:28:02;53.17;;;22.52;;
49392;SDS011;35268;42.642;23.308;2023-03-03T20:31:10;44.10;;;21.27;;
49392;SDS011;35268;42.642;23.308;2023-03-03T21:00:40;20.90;;;12.07;;
49392;SDS011;35268;42.642;23.308;2023-03-03T21:03:21;22.60;;;10.93;;
49392;SDS011;35268;42.642;23.308;2023-03-03T21:06:07;26.70;;;11.45;;
49392;SDS011;35268;42.642;23.308;2023-03-03T21:11:17;23.38;;;11.38;;
49392;SDS011;35268;42.642;23.308;2023-03-03T21:13:49;20.73;;;10.63;;
49392;SDS011;35268;42.642;23.308;2023-03-03T21:18:59;22.67;;;10.63;;
49392;SDS011;35268;42.642;23.308;2023-03-03T21:21:27;22.83;;;12.48;;
49392;SDS011;35268;42.642;23.308;2023-03-03T21:23:56;22.27;;;12.52;;
49392;SDS011;35268;42.642;23.308;2023-03-03T21:29:29;22.48;;;9.93;;
49392;SDS011;35268;42.642;23.308;2023-03-03T21:32:00;21.92;;;10.27;;
49392;SDS011;35268;42.642;23.308;2023-03-03T21:36:57;14.85;;;8.43;;
49392;SDS011;35268;42.642;23.308;2023-03-03T21:44:32;16.73;;;9.02;;
49392;SDS011;35268;42.642;23.308;2023-03-03T21:47:04;14.48;;;8.68;;
49392;SDS011;35268;42.642;23.308;2023-03-03T21:49:30;19.15;;;9.85;;
49392;SDS011;35268;42.642;23.308;2023-03-03T21:51:56;17.33;;;10.00;;
49392;SDS011;35268;42.642;23.308;2023-03-03T21:54:22;15.05;;;9.50;;
49392;SDS011;35268;42.642;23.308;2023-03-03T21:56:51;20.70;;;10.00;;
49392;SDS011;35268;42.642;23.308;2023-03-03T21:59:17;15.43;;;9.63;;
49392;SDS011;35268;42.642;23.308;2023-03-03T22:01:43;17.40;;;10.52;;
49392;SDS011;35268;42.642;23.308;2023-03-03T22:04:09;18.40;;;9.98;;
49392;SDS011;35268;42.642;23.308;2023-03-03T22:06:34;17.88;;;10.13;;
49392;SDS011;35268;42.642;23.308;2023-03-03T22:09:01;15.77;;;10.00;;
49392;SDS011;35268;42.642;23.308;2023-03-03T22:11:28;16.92;;;9.68;;
49392;SDS011;35268;42.642;23.308;2023-03-03T22:13:53;16.73;;;10.50;;
49392;SDS011;35268;42.642;23.308;2023-03-03T22:16:19;17.17;;;9.98;;
49392;SDS011;35268;42.642;23.308;2023-03-03T22:18:44;18.30;;;10.65;;
49392;SDS011;35268;42.642;23.308;2023-03-03T22:21:10;21.30;;;11.60;;
49392;SDS011;35268;42.642;23.308;2023-03-03T22:23:35;22.92;;;11.38;;
49392;SDS011;35268;42.642;23.308;2023-03-03T22:26:00;17.45;;;10.38;;
49392;SDS011;35268;42.642;23.308;2023-03-03T22:28:26;21.90;;;12.10;;
49392;SDS011;35268;42.642;23.308;2023-03-03T22:30:53;18.75;;;11.38;;
49392;SDS011;35268;42.642;23.308;2023-03-03T22:33:19;19.17;;;11.50;;
49392;SDS011;35268;42.642;23.308;2023-03-03T22:35:45;19.25;;;11.48;;